Time;durP1;ratioP1;P1;durP2;ratioP2;P2;SDS_P1;SDS_P2;PMS_P1;PMS_P2;Temp;Humidity;BMP_temperature;BMP_pressure;BME280_temperature;BME280_humidity;BME280_pressure;Samples;Min_cycle;Max_cycle;Signal;HPM_P1;HPM_P2
2022/09/16 00:04:35;;;;;;;8.57;1.58;;;;;;;14.10;78.42;101065.97;10582117;28;20019;-73
2022/09/16 00:09:37;;;;;;;2.65;1.20;;;;;;;14.24;77.88;101077.63;10582050;28;20038;-73
2022/09/16 00:14:52;;;;;;;4.57;0.93;;;;;;;14.29;76.77;101071.53;10564551;28;20126;-73
2022/09/16 00:19:53;;;;;;;8.00;1.55;;;;;;;14.25;77.35;101073.00;10563457;28;20077;-73
2022/09/16 00:24:53;;;;;;;6.13;1.38;;;;;;;14.26;77.77;101071.94;10582378;28;20031;-73
2022/09/16 00:29:54;;;;;;;8.07;2.28;;;;;;;14.26;78.38;101074.69;10588074;28;20040;-73
2022/09/16 00:34:54;;;;;;;13.07;1.45;;;;;;;14.08;77.78;101070.78;10589982;28;20056;-69
2022/09/16 00:39:55;;;;;;;3.63;1.20;;;;;;;13.84;78.34;101072.34;10590622;28;20082;-69
2022/09/16 00:45:01;;;;;;;14.00;1.33;;;;;;;13.65;78.60;101068.63;10576126;28;20465;-70
2022/09/16 00:50:06;;;;;;;3.40;1.25;;;;;;;13.41;79.02;101066.63;10589218;28;20116;-69
2022/09/16 00:55:08;;;;;;;1.45;1.27;;;;;;;13.37;79.67;101065.34;10588252;28;20479;-70
2022/09/16 01:00:11;;;;;;;1.60;1.27;;;;;;;13.37;79.75;101068.94;10588750;28;20427;-69
2022/09/16 01:05:14;;;;;;;12.35;2.47;;;;;;;13.41;82.26;101066.63;10588401;28;20463;-70
2022/09/16 01:10:22;;;;;;;4.20;2.25;;;;;;;13.51;82.98;101077.06;10569462;28;20031;-69
2022/09/16 01:15:24;;;;;;;1.15;1.05;;;;;;;13.44;83.18;101069.75;10586763;28;20451;-68
2022/09/16 01:21:37;;;;;;;2.83;1.83;;;;;;;13.26;86.33;101097.59;10552725;28;20035;-67
2022/09/16 01:27:01;;;;;;;2.42;2.17;;;;;;;12.70;88.87;101097.97;10446417;28;20434;-67
2022/09/16 01:32:16;;;;;;;13.55;2.38;;;;;;;12.46;86.93;101091.22;10568574;28;20093;-66
2022/09/16 01:37:31;;;;;;;3.65;2.15;;;;;;;12.24;85.94;101095.13;10568561;28;20075;-67
2022/09/16 01:42:39;;;;;;;4.25;1.60;;;;;;;12.05;84.36;101094.84;10554520;28;20036;-66
2022/09/16 01:47:58;;;;;;;1.38;1.27;;;;;;;12.03;84.81;101091.50;10551813;28;20063;-67
2022/09/16 01:53:07;;;;;;;6.38;2.17;;;;;;;12.25;85.16;101102.22;10587200;28;20030;-66
2022/09/16 01:58:25;;;;;;;12.65;2.22;;;;;;;12.44;84.94;101100.63;10568190;28;20028;-67
2022/09/16 02:03:31;;;;;;;10.95;2.00;;;;;;;12.51;84.45;101096.06;10585509;28;20028;-67
2022/09/16 02:08:42;;;;;;;11.70;2.65;;;;;;;12.49;84.54;101096.25;10567547;28;20031;-67
2022/09/16 02:13:54;;;;;;;3.53;1.92;;;;;;;12.57;84.85;101092.50;10552646;28;20042;-68
2022/09/16 02:18:56;;;;;;;6.90;2.55;;;;;;;12.58;84.36;101094.19;10553258;28;20023;-67
2022/09/16 02:23:58;;;;;;;8.52;2.20;;;;;;;12.65;89.33;101127.63;10568032;28;20031;-67
2022/09/16 02:28:59;;;;;;;8.60;2.05;;;;;;;12.33;94.68;101113.75;10566679;28;20028;-67
2022/09/16 02:34:10;;;;;;;8.60;2.05;;;;;;;12.09;92.08;101097.97;10565860;28;20433;-67
2022/09/16 02:39:13;;;;;;;4.63;1.35;;;;;;;11.97;89.62;101083.34;10551485;28;20035;-67
2022/09/16 02:44:13;;;;;;;2.97;1.08;;;;;;;11.80;87.92;101099.91;10566334;28;20042;-67
2022/09/16 02:49:25;;;;;;;7.93;1.40;;;;;;;11.59;87.77;101102.72;10587111;28;20035;-66
2022/09/16 02:54:44;;;;;;;1.13;1.13;;;;;;;11.62;88.18;101103.16;10566802;28;20028;-66
2022/09/16 02:59:45;;;;;;;4.15;1.77;;;;;;;11.68;88.07;101096.09;10566098;28;20031;-66
2022/09/16 03:04:45;;;;;;;4.95;1.85;;;;;;;11.69;87.69;101081.50;10584737;28;20036;-67
2022/09/16 03:09:46;;;;;;;10.25;1.85;;;;;;;11.69;87.65;101077.94;10565236;28;20031;-67
2022/09/16 03:14:52;;;;;;;1.75;1.23;;;;;;;11.71;87.63;101075.84;10565457;28;20043;-67
2022/09/16 03:20:06;;;;;;;7.38;1.92;;;;;;;11.71;87.65;101071.28;10587999;28;20063;-67
2022/09/16 03:25:17;;;;;;;7.28;2.10;;;;;;;11.82;89.20;101069.88;10582522;28;20163;-66
2022/09/16 03:30:18;;;;;;;9.77;1.40;;;;;;;11.86;91.30;101091.00;10567415;28;20104;-66
2022/09/16 03:35:24;;;;;;;4.47;1.20;;;;;;;11.73;97.38;101085.47;10564504;28;20048;-66
2022/09/16 03:40:25;;;;;;;17.55;2.50;;;;;;;11.72;95.37;101075.66;10583566;28;20027;-66
2022/09/16 03:45:26;;;;;;;10.15;1.55;;;;;;;11.79;94.19;101073.81;10564973;28;20035;-66
2022/09/16 03:50:26;;;;;;;1.67;1.58;;;;;;;11.76;94.39;101081.53;10582720;28;20027;-66
2022/09/16 03:55:26;;;;;;;1.70;1.60;;;;;;;11.82;95.04;101097.00;10582131;28;20459;-66
2022/09/16 04:00:28;;;;;;;4.47;1.52;;;;;;;11.91;94.46;101089.56;10582150;28;20425;-66
2022/09/16 04:05:28;;;;;;;8.32;1.60;;;;;;;11.93;94.19;101080.16;10590139;28;20118;-66
2022/09/16 04:10:28;;;;;;;14.57;1.55;;;;;;;11.92;92.97;101072.25;10574005;28;20440;-66
2022/09/16 04:15:29;;;;;;;3.85;1.77;;;;;;;11.89;92.76;101070.75;10590352;28;20075;-67
2022/09/16 04:20:29;;;;;;;7.15;1.63;;;;;;;11.74;92.28;101057.34;10592740;28;20341;-67
2022/09/16 04:25:30;;;;;;;7.70;2.20;;;;;;;11.68;91.62;101065.41;10589470;28;20032;-66
2022/09/16 04:30:30;;;;;;;4.70;1.63;;;;;;;11.73;93.38;101066.47;10489065;28;20463;-67
2022/09/16 04:35:30;;;;;;;3.35;1.83;;;;;;;11.93;96.62;101061.16;10593100;28;20059;-67
2022/09/16 04:40:31;;;;;;;5.43;2.30;;;;;;;12.11;96.01;101060.63;10590636;28;20383;-67
2022/09/16 04:45:31;;;;;;;10.20;3.25;;;;;;;12.22;94.85;101060.06;10570873;28;20035;-68
2022/09/16 04:50:32;;;;;;;10.75;1.77;;;;;;;12.21;95.54;101071.09;10570779;28;20043;-66
2022/09/16 04:55:32;;;;;;;6.20;1.83;;;;;;;12.02;93.60;101067.28;10588400;28;20027;-68
2022/09/16 05:00:32;;;;;;;3.67;1.35;;;;;;;11.89;93.40;101059.91;10588517;28;20075;-67
2022/09/16 05:05:33;;;;;;;10.07;2.42;;;;;;;11.89;93.18;101075.38;10586299;28;20032;-67
2022/09/16 05:10:34;;;;;;;4.20;1.13;;;;;;;11.84;94.26;101065.09;10570380;28;20031;-67
2022/09/16 05:15:34;;;;;;;7.30;3.10;;;;;;;11.90;95.11;101068.88;10570597;28;20036;-67
2022/09/16 05:20:36;;;;;;;23.77;3.35;;;;;;;11.94;95.50;101059.31;10588221;28;20027;-67
2022/09/16 05:25:36;;;;;;;4.78;2.15;;;;;;;12.14;94.95;101071.06;10586859;28;20031;-67
2022/09/16 05:30:37;;;;;;;3.30;2.13;;;;;;;12.22;93.88;101057.34;10569641;28;20040;-67
2022/09/16 05:35:37;;;;;;;5.63;1.65;;;;;;;12.36;97.04;101069.06;10587168;28;20056;-68
2022/09/16 05:40:38;;;;;;;4.63;1.70;;;;;;;12.55;96.93;101086.44;10587193;28;20043;-68
2022/09/16 05:45:38;;;;;;;9.23;2.15;;;;;;;12.48;94.82;101082.88;10585751;28;20118;-68
2022/09/16 05:50:39;;;;;;;1.40;1.15;;;;;;;12.43;94.52;101082.66;10587372;28;20036;-68
2022/09/16 05:55:39;;;;;;;5.40;1.92;;;;;;;12.58;94.69;101091.47;10570283;28;20032;-68
2022/09/16 06:00:40;;;;;;;4.65;1.73;;;;;;;12.51;94.22;101113.19;10586485;28;20073;-68
2022/09/16 06:05:40;;;;;;;6.70;2.28;;;;;;;12.28;93.86;101108.09;10586329;28;20063;-68
2022/09/16 06:10:41;;;;;;;14.70;2.13;;;;;;;12.04;93.20;101095.06;10585440;28;20035;-68
2022/09/16 06:15:50;;;;;;;4.68;2.33;;;;;;;11.96;93.61;101106.91;10585547;28;20119;-67
2022/09/16 06:20:51;;;;;;;7.70;2.53;;;;;;;11.94;93.21;101100.88;10584080;28;20466;-68
2022/09/16 06:26:19;;;;;;;2.05;1.08;;;;;;;11.98;93.10;101104.84;10585911;28;20032;-67
2022/09/16 06:31:24;;;;;;;2.63;1.95;;;;;;;12.24;93.97;101106.00;10584991;28;20050;-67
2022/09/16 06:36:28;;;;;;;3.70;1.52;;;;;;;12.79;93.00;101114.88;10583425;28;20043;-67
2022/09/16 06:41:29;;;;;;;6.00;3.08;;;;;;;14.84;91.74;101099.09;10584899;28;20061;-67
2022/09/16 06:46:30;;;;;;;10.77;2.08;;;;;;;15.13;90.05;101097.63;10548644;28;20043;-67
2022/09/16 06:51:30;;;;;;;1.58;1.48;;;;;;;16.21;89.04;101096.28;10565543;28;20051;-68
2022/09/16 06:56:32;;;;;;;6.53;1.48;;;;;;;17.11;87.66;101089.94;10566348;28;20088;-68
2022/09/16 07:01:33;;;;;;;3.88;1.52;;;;;;;17.90;85.07;101073.97;10584864;28;20049;-68
2022/09/16 07:06:34;;;;;;;10.10;1.55;;;;;;;19.19;84.69;101087.06;10583280;28;20118;-68
2022/09/16 07:11:34;;;;;;;8.80;1.45;;;;;;;16.43;75.33;101116.59;10584979;28;20444;-67
2022/09/16 07:16:34;;;;;;;1.45;1.05;;;;;;;13.10;89.29;101133.34;10582532;28;20467;-68
2022/09/16 07:21:35;;;;;;;4.25;1.33;;;;;;;12.39;92.75;101105.84;10565318;28;20050;-68
2022/09/16 07:26:36;;;;;;;3.20;1.88;;;;;;;12.18;92.25;101109.50;10564712;28;20478;-67
2022/09/16 07:31:37;;;;;;;9.25;1.55;;;;;;;12.06;91.88;101120.97;10583182;28;20031;-67
2022/09/16 07:36:47;;;;;;;4.25;1.70;;;;;;;13.30;94.94;101117.03;10563624;28;20048;-68
2022/09/16 07:41:47;;;;;;;8.57;2.15;;;;;;;14.80;96.71;101119.66;10564007;28;20044;-68
2022/09/16 07:46:49;;;;;;;1.98;1.15;;;;;;;14.02;97.57;101120.66;10584820;28;20045;-68
2022/09/16 07:51:50;;;;;;;3.85;2.22;;;;;;;13.47;97.78;101120.19;10581874;28;20027;-67
2022/09/16 07:56:50;;;;;;;9.38;2.38;;;;;;;15.76;98.42;101111.09;10581960;28;20043;-68
2022/09/16 08:01:51;;;;;;;7.25;2.30;;;;;;;18.06;96.61;101110.72;10566026;28;20044;-68
2022/09/16 08:06:51;;;;;;;4.25;1.77;;;;;;;17.93;99.55;101127.44;10581478;28;20088;-68
2022/09/16 08:11:51;;;;;;;1.92;1.30;;;;;;;15.70;96.19;101160.31;10582050;28;20061;-68
2022/09/16 08:16:52;;;;;;;3.85;2.08;;;;;;;14.28;100.00;101167.91;10581490;28;20092;-68
2022/09/16 08:21:52;;;;;;;8.70;2.30;;;;;;;13.84;100.00;101169.50;10563090;28;20035;-68
2022/09/16 08:26:53;;;;;;;11.13;2.15;;;;;;;13.54;100.00;101166.44;10582018;28;20054;-68
2022/09/16 08:31:53;;;;;;;4.90;1.58;;;;;;;13.32;100.00;101166.63;10584529;28;20036;-68
2022/09/16 08:36:54;;;;;;;5.70;1.77;;;;;;;15.36;100.00;101162.47;10581470;28;20059;-68
2022/09/16 08:41:54;;;;;;;2.90;2.65;;;;;;;17.79;100.00;101185.22;10580316;28;20391;-68
2022/09/16 08:46:59;;;;;;;2.08;1.60;;;;;;;17.19;98.05;101201.78;10581045;28;20114;-68
2022/09/16 08:52:03;;;;;;;4.30;0.82;;;;;;;14.84;100.00;101197.25;10554179;28;20076;-68
2022/09/16 08:57:04;;;;;;;13.48;1.85;;;;;;;14.23;100.00;101192.25;10569946;28;20118;-69
2022/09/16 09:02:19;;;;;;;3.33;2.08;;;;;;;13.86;100.00;101197.38;10570985;28;20035;-68
2022/09/16 09:07:52;;;;;;;9.00;2.28;;;;;;;13.65;100.00;101204.69;10588400;28;20023;-68
2022/09/16 09:12:58;;;;;;;7.82;2.03;;;;;;;13.70;100.00;101207.63;10587949;28;20032;-69
2022/09/16 09:18:01;;;;;;;4.75;2.38;;;;;;;13.48;100.00;101222.50;10589175;28;20469;-69
2022/09/16 09:23:39;;;;;;;10.85;2.20;;;;;;;13.20;100.00;101247.13;10587765;28;20040;-70
2022/09/16 09:29:21;;;;;;;8.20;1.67;;;;;;;12.72;100.00;101242.59;10571595;28;20035;-70
2022/09/16 09:34:36;;;;;;;4.18;1.98;;;;;;;12.46;100.00;101235.19;10552181;28;20047;-70
2022/09/16 09:40:08;;;;;;;11.15;2.13;;;;;;;12.71;100.00;101216.47;10569999;28;20049;-70
2022/09/16 09:45:19;;;;;;;1.13;1.13;;;;;;;15.33;100.00;101217.50;10571089;28;20019;-70
2022/09/16 09:50:27;;;;;;;8.98;2.22;;;;;;;16.70;100.00;101217.38;10568422;28;20019;-70
2022/09/16 09:55:31;;;;;;;1.65;1.15;;;;;;;17.18;100.00;101211.88;10568173;28;20038;-70
2022/09/16 10:00:31;;;;;;;7.18;2.05;;;;;;;18.01;100.00;101190.09;10585476;28;20383;-70
2022/09/16 10:05:32;;;;;;;6.05;2.72;;;;;;;16.71;100.00;101195.25;10568742;28;20070;-70
2022/09/16 10:10:33;;;;;;;11.25;2.20;;;;;;;15.79;100.00;101195.31;10568088;28;20383;-70
2022/09/16 10:15:34;;;;;;;4.03;1.45;;;;;;;15.53;100.00;101199.06;10585243;28;20028;-70
2022/09/16 10:20:36;;;;;;;1.45;1.30;;;;;;;15.27;100.00;101199.28;10586334;28;20031;-70
2022/09/16 10:25:36;;;;;;;1.10;1.02;;;;;;;14.92;100.00;101190.69;10566958;28;20062;-70
2022/09/16 10:30:51;;;;;;;2.10;1.10;;;;;;;14.90;100.00;101196.38;10567003;28;20486;-70
2022/09/16 10:35:57;;;;;;;6.47;1.85;;;;;;;15.67;100.00;101186.16;10568799;28;20058;-69
2022/09/16 10:41:02;;;;;;;2.40;1.80;;;;;;;17.91;100.00;101190.69;10567508;28;20065;-69
2022/09/16 10:46:03;;;;;;;5.43;2.13;;;;;;;19.33;100.00;101178.16;10567050;28;20028;-69
2022/09/16 10:51:05;;;;;;;0.93;0.88;;;;;;;19.87;97.85;101174.91;10532567;28;20051;-69
2022/09/16 10:56:15;;;;;;;1.70;1.60;;;;;;;20.60;100.00;101181.13;10549849;28;20463;-69
2022/09/16 11:01:36;;;;;;;5.47;1.30;;;;;;;18.95;100.00;101187.09;10565814;28;20034;-69
2022/09/16 11:06:40;;;;;;;5.20;2.47;;;;;;;18.60;100.00;101190.78;10566353;28;20027;-70
2022/09/16 11:11:49;;;;;;;1.60;1.50;;;;;;;20.36;100.00;101208.88;10583746;28;20129;-71
2022/09/16 11:16:59;;;;;;;3.80;1.77;;;;;;;20.92;100.00;101202.38;10582566;28;20034;-72
2022/09/16 11:22:31;;;;;;;1.05;1.05;;;;;;;19.88;100.00;101184.84;10565108;28;20042;-72
2022/09/16 11:27:31;;;;;;;1.88;1.77;;;;;;;20.67;100.00;101199.06;10564672;28;20059;-72
2022/09/16 11:33:00;;;;;;;0.68;0.68;;;;;;;19.08;100.00;101207.91;10565545;28;20055;-72
2022/09/16 11:38:24;;;;;;;5.28;2.03;;;;;;;20.17;100.00;101202.00;10582638;28;20126;-73
2022/09/16 11:43:49;;;;;;;5.78;1.52;;;;;;;20.06;100.00;101212.00;10564386;28;20120;-73
2022/09/16 11:49:16;;;;;;;1.60;1.10;;;;;;;21.59;99.84;101215.69;10565065;28;20367;-73
2022/09/16 11:54:49;;;;;;;;;;;;;;;20.61;100.00;101218.53;10566472;28;20032;-73
2022/09/16 12:00:12;;;;;;;1.50;1.40;;;;;;;20.08;100.00;101225.53;10536792;28;20368;-73
2022/09/16 12:05:18;;;;;;;1.45;1.35;;;;;;;19.14;100.00;101226.97;10582292;28;20038;-73
2022/09/16 12:10:27;;;;;;;5.15;1.52;;;;;;;19.59;100.00;101228.88;10564826;28;20023;-72
2022/09/16 12:15:32;;;;;;;3.10;1.40;;;;;;;19.08;100.00;101240.84;10564032;28;20134;-72
2022/09/16 12:20:34;;;;;;;1.35;1.10;;;;;;;17.97;100.00;101252.75;10563828;28;20108;-72
2022/09/16 12:25:43;;;;;;;1.25;1.08;;;;;;;17.02;100.00;101252.75;10570485;28;20363;-72
2022/09/16 12:30:45;;;;;;;2.80;1.30;;;;;;;16.70;100.00;101272.09;10572964;28;20035;-72
2022/09/16 12:36:01;;;;;;;4.70;1.08;;;;;;;17.91;100.00;101283.03;10590826;28;20047;-72
2022/09/16 12:41:35;;;;;;;2.25;1.40;;;;;;;16.49;100.00;101282.41;10538226;28;20062;-71
2022/09/16 12:46:36;;;;;;;1.40;1.25;;;;;;;15.23;100.00;101309.91;10572194;28;20031;-70
2022/09/16 12:51:58;;;;;;;4.72;1.42;;;;;;;14.28;100.00;101287.78;10590400;28;20030;-69
2022/09/16 12:57:17;;;;;;;2.92;1.63;;;;;;;13.61;100.00;101282.38;10589125;28;20467;-68
2022/09/16 13:02:21;;;;;;;2.05;1.48;;;;;;;13.25;100.00;101269.16;10573087;28;20039;-68
2022/09/16 13:07:24;;;;;;;8.48;2.53;;;;;;;13.44;100.00;101256.63;10571856;28;20032;-68
2022/09/16 13:12:25;;;;;;;1.73;1.63;;;;;;;13.94;100.00;101237.97;10570721;28;20105;-68
2022/09/16 13:17:36;;;;;;;3.25;2.33;;;;;;;15.53;100.00;101255.53;10553483;28;20027;-69
2022/09/16 13:22:39;;;;;;;11.48;3.50;;;;;;;14.37;100.00;101268.28;10570519;28;20031;-69
2022/09/16 13:27:40;;;;;;;4.65;1.98;;;;;;;13.72;100.00;101260.00;10588210;28;20045;-69
2022/09/16 13:32:49;;;;;;;7.13;1.88;;;;;;;15.19;100.00;101237.72;10570315;28;20043;-69
2022/09/16 13:37:52;;;;;;;1.65;1.40;;;;;;;15.65;100.00;101245.59;10587415;28;20040;-69
2022/09/16 13:43:07;;;;;;;9.60;2.83;;;;;;;16.78;100.00;101240.88;10568972;28;20387;-69
2022/09/16 13:48:11;;;;;;;4.05;2.50;;;;;;;16.01;100.00;101223.00;10586191;28;20032;-69
2022/09/16 13:53:28;;;;;;;5.72;2.75;;;;;;;15.68;100.00;101219.75;10568809;28;20039;-70
2022/09/16 13:58:30;;;;;;;2.13;1.98;;;;;;;15.24;100.00;101225.09;10587475;28;20040;-70
2022/09/16 14:03:57;;;;;;;4.47;2.67;;;;;;;14.80;100.00;101223.25;10567909;28;20133;-70
2022/09/16 14:09:03;;;;;;;;;;;;;;;14.51;100.00;101224.66;10570283;28;20027;-71
2022/09/16 14:14:15;;;;;;;13.70;3.47;;;;;;;14.39;100.00;101232.66;10586656;28;19911;-71
2022/09/16 14:19:30;;;;;;;9.93;3.42;;;;;;;14.25;100.00;101234.56;10568659;28;20379;-70
2022/09/16 14:24:38;;;;;;;5.85;2.03;;;;;;;14.84;100.00;101227.25;10584157;28;20027;-71
2022/09/16 14:29:39;;;;;;;4.68;2.70;;;;;;;15.99;100.00;101229.78;10584838;28;20124;-71
2022/09/16 14:34:40;;;;;;;1.60;1.50;;;;;;;17.13;100.00;101219.13;10585081;28;20047;-70
2022/09/16 14:39:41;;;;;;;10.52;2.22;;;;;;;16.35;100.00;101231.69;10569097;28;20123;-71
2022/09/16 14:44:45;;;;;;;2.25;2.03;;;;;;;15.83;100.00;101225.72;10566216;28;20043;-72
2022/09/16 14:49:46;;;;;;;10.48;2.30;;;;;;;15.05;100.00;101226.91;10565605;28;20070;-71
2022/09/16 14:54:46;;;;;;;5.50;1.40;;;;;;;14.73;100.00;101222.47;10564792;28;20027;-72
2022/09/16 14:59:47;;;;;;;10.20;2.70;;;;;;;14.69;100.00;101213.91;10580969;28;20114;-72
2022/09/16 15:05:04;;;;;;;2.30;1.20;;;;;;;14.75;100.00;101215.75;10563639;28;20051;-72
2022/09/16 15:10:06;;;;;;;8.98;2.65;;;;;;;15.20;100.00;101217.59;10573037;28;20106;-72
2022/09/16 15:15:17;;;;;;;4.93;2.33;;;;;;;15.40;100.00;101212.81;10564028;28;20413;-72
2022/09/16 15:20:20;;;;;;;4.00;1.73;;;;;;;15.50;100.00;101207.69;10581097;28;20027;-73
2022/09/16 15:25:28;;;;;;;7.18;2.63;;;;;;;15.64;100.00;101215.78;10567519;28;20043;-72
2022/09/16 15:30:28;;;;;;;6.75;1.80;;;;;;;15.09;100.00;101228.16;10564193;28;20031;-72
2022/09/16 15:35:34;;;;;;;6.32;2.63;;;;;;;14.42;100.00;101227.59;10525033;28;1082293;-72
2022/09/16 15:40:34;;;;;;;1.50;1.38;;;;;;;14.15;100.00;101235.00;10584154;28;20051;-72
2022/09/16 15:45:35;;;;;;;9.88;2.47;;;;;;;14.08;100.00;101238.81;10582412;28;20367;-72
2022/09/16 15:50:56;;;;;;;3.35;1.60;;;;;;;13.88;100.00;101241.53;10548205;28;20402;-72
2022/09/16 15:56:05;;;;;;;15.77;2.88;;;;;;;13.80;100.00;101236.31;10564111;28;20031;-72
2022/09/16 16:01:17;;;;;;;10.32;2.75;;;;;;;13.90;100.00;101236.72;10593471;28;20031;-71
2022/09/16 16:06:18;;;;;;;12.63;2.55;;;;;;;13.94;100.00;101232.53;10591961;28;20027;-72
2022/09/16 16:11:20;;;;;;;8.73;2.40;;;;;;;14.18;100.00;101231.84;10576434;28;20110;-71
2022/09/16 16:16:21;;;;;;;6.47;2.67;;;;;;;14.31;100.00;101225.53;10573594;28;20059;-72
2022/09/16 16:21:21;;;;;;;2.42;1.90;;;;;;;14.27;100.00;101224.31;10572209;28;20043;-72
2022/09/16 16:26:22;;;;;;;6.78;2.42;;;;;;;14.30;100.00;101242.94;10571831;28;20038;-72
2022/09/16 16:31:22;;;;;;;10.15;2.40;;;;;;;14.25;100.00;101239.19;10554831;28;20431;-72
2022/09/16 16:36:23;;;;;;;12.68;2.85;;;;;;;14.21;100.00;101238.78;10590072;28;20052;-72
2022/09/16 16:41:23;;;;;;;7.60;1.90;;;;;;;14.20;100.00;101228.94;10556989;28;20069;-72
2022/09/16 16:46:25;;;;;;;9.32;1.90;;;;;;;14.17;100.00;101241.09;10571025;28;20035;-72
2022/09/16 16:51:26;;;;;;;13.65;3.72;;;;;;;14.05;100.00;101245.50;10587835;28;20040;-72
2022/09/16 16:56:26;;;;;;;7.20;2.42;;;;;;;13.90;100.00;101255.78;10570216;28;20035;-72
2022/09/16 17:01:27;;;;;;;5.10;3.33;;;;;;;13.79;100.00;101249.09;10589586;28;20118;-72
2022/09/16 17:06:30;;;;;;;8.82;2.90;;;;;;;13.89;100.00;101248.66;10588640;28;20467;-72
2022/09/16 17:11:31;;;;;;;9.73;3.33;;;;;;;13.82;100.00;101253.28;10587568;28;20051;-71
2022/09/16 17:16:32;;;;;;;7.13;2.38;;;;;;;13.73;100.00;101245.31;10587939;28;20040;-72
2022/09/16 17:21:33;;;;;;;7.18;2.53;;;;;;;13.61;100.00;101257.03;10572665;28;20100;-72
2022/09/16 17:26:33;;;;;;;9.25;4.13;;;;;;;13.71;100.00;101262.91;10568696;28;20475;-71
2022/09/16 17:31:34;;;;;;;15.88;3.67;;;;;;;13.95;100.00;101267.72;10552507;28;20031;-72
2022/09/16 17:36:36;;;;;;;14.35;3.85;;;;;;;13.58;100.00;101261.03;10569018;28;20119;-70
2022/09/16 17:41:37;;;;;;;5.88;2.55;;;;;;;13.09;100.00;101256.75;10587596;28;20100;-71
2022/09/16 17:46:37;;;;;;;12.10;3.58;;;;;;;12.79;100.00;101261.66;10587318;28;20085;-71
2022/09/16 17:51:38;;;;;;;12.50;2.65;;;;;;;12.71;100.00;101270.81;10568345;28;20477;-71
2022/09/16 17:56:39;;;;;;;9.80;2.58;;;;;;;12.76;100.00;101287.38;10568400;28;20036;-71
2022/09/16 18:01:40;;;;;;;9.40;3.17;;;;;;;12.78;100.00;101273.56;10586763;28;20082;-71
2022/09/16 18:06:42;;;;;;;4.88;2.80;;;;;;;12.56;100.00;101270.13;10585137;28;20051;-71
2022/09/16 18:11:43;;;;;;;11.63;3.30;;;;;;;12.43;100.00;101272.78;10585546;28;20429;-71
2022/09/16 18:16:44;;;;;;;12.98;2.58;;;;;;;12.41;100.00;101272.13;10588422;28;20084;-71
2022/09/16 18:21:44;;;;;;;16.33;3.15;;;;;;;12.41;100.00;101280.28;10584959;28;20035;-71
2022/09/16 18:26:45;;;;;;;5.65;2.55;;;;;;;12.42;100.00;101276.53;10566468;28;20093;-71
2022/09/16 18:31:46;;;;;;;10.95;3.00;;;;;;;12.45;100.00;101266.09;10586102;28;20111;-71
2022/09/16 18:36:46;;;;;;;8.57;2.90;;;;;;;12.52;100.00;101269.69;10585580;28;20044;-71
2022/09/16 18:41:47;;;;;;;6.47;3.25;;;;;;;12.75;100.00;101280.25;10584374;28;20036;-70
2022/09/16 18:46:47;;;;;;;22.48;3.80;;;;;;;12.87;100.00;101280.50;10585253;28;20076;-71
2022/09/16 18:51:49;;;;;;;5.70;2.75;;;;;;;12.71;100.00;101284.41;10566519;28;20027;-70
2022/09/16 18:56:49;;;;;;;19.58;4.28;;;;;;;12.67;100.00;101287.75;10582768;28;20031;-70
2022/09/16 19:01:51;;;;;;;11.77;4.03;;;;;;;12.63;100.00;101295.44;10583995;28;20137;-71
2022/09/16 19:06:53;;;;;;;9.35;3.75;;;;;;;12.69;100.00;101291.09;10565964;28;20128;-70
2022/09/16 19:11:53;;;;;;;17.98;4.55;;;;;;;12.71;100.00;101289.00;10564981;28;20463;-71
2022/09/16 19:16:54;;;;;;;14.25;2.92;;;;;;;12.75;100.00;101304.69;10584327;28;20032;-71
2022/09/16 19:21:54;;;;;;;17.63;4.47;;;;;;;12.75;100.00;101301.97;10565637;28;20098;-71
2022/09/16 19:26:55;;;;;;;15.93;4.22;;;;;;;12.70;100.00;101301.75;10582602;28;20027;-71
2022/09/16 19:31:57;;;;;;;17.17;4.07;;;;;;;12.82;100.00;101317.47;10583187;28;20124;-70
2022/09/16 19:36:57;;;;;;;9.23;4.70;;;;;;;12.57;100.00;101327.00;10583118;28;20364;-69
2022/09/16 19:42:02;;;;;;;8.75;3.25;;;;;;;12.15;100.00;101317.09;10583688;28;20035;-69
2022/09/16 19:47:02;;;;;;;13.90;2.90;;;;;;;11.97;100.00;101309.44;10582705;28;20031;-68
2022/09/16 19:52:03;;;;;;;12.48;4.10;;;;;;;11.84;100.00;101304.75;10584023;28;20040;-68
2022/09/16 19:57:03;;;;;;;11.65;3.92;;;;;;;11.96;100.00;101315.06;10581722;28;20038;-68
2022/09/16 20:02:05;;;;;;;10.27;3.15;;;;;;;12.17;100.00;101319.63;10565460;28;20039;-69
2022/09/16 20:07:11;;;;;;;6.05;2.83;;;;;;;12.20;100.00;101336.34;10583651;28;20130;-67
2022/09/16 20:12:12;;;;;;;13.00;4.17;;;;;;;12.27;100.00;101330.97;10582708;28;20493;-69
2022/09/16 20:17:13;;;;;;;14.57;3.33;;;;;;;12.37;100.00;101330.59;10563777;28;20028;-68
2022/09/16 20:22:13;;;;;;;15.88;3.53;;;;;;;12.51;100.00;101330.50;10582242;28;20032;-69
2022/09/16 20:27:13;;;;;;;12.10;3.03;;;;;;;12.51;100.00;101335.09;10581761;28;20028;-68
2022/09/16 20:32:14;;;;;;;7.35;2.70;;;;;;;12.38;100.00;101343.13;10547071;28;20100;-68
2022/09/16 20:37:14;;;;;;;5.88;2.17;;;;;;;12.28;100.00;101341.63;10582461;28;20097;-68
2022/09/16 20:42:15;;;;;;;5.28;2.22;;;;;;;12.23;100.00;101343.25;10580864;28;20044;-68
2022/09/16 20:47:16;;;;;;;5.20;2.25;;;;;;;12.36;100.00;101356.09;10588515;28;20412;-69
2022/09/16 20:52:16;;;;;;;14.45;2.55;;;;;;;12.27;100.00;101358.94;10590028;28;20088;-69
2022/09/16 20:57:17;;;;;;;13.88;3.13;;;;;;;12.29;100.00;101354.16;10572190;28;20051;-69
2022/09/16 21:02:17;;;;;;;9.27;2.33;;;;;;;12.30;100.00;101352.28;10589039;28;20043;-68
2022/09/16 21:07:17;;;;;;;14.10;3.33;;;;;;;12.28;100.00;101359.78;10590588;28;20023;-69
2022/09/16 21:12:18;;;;;;;5.82;1.90;;;;;;;12.39;100.00;101383.69;10570767;28;20043;-69
2022/09/16 21:17:20;;;;;;;8.85;2.40;;;;;;;12.14;100.00;101396.03;10570319;28;20040;-68
2022/09/16 21:22:21;;;;;;;10.02;2.45;;;;;;;11.68;100.00;101390.94;10589849;28;20032;-68
2022/09/16 21:27:21;;;;;;;12.43;1.73;;;;;;;11.45;100.00;101382.97;10569100;28;20032;-68
2022/09/16 21:32:22;;;;;;;2.58;1.38;;;;;;;11.34;100.00;101384.34;10587838;28;20035;-68
2022/09/16 21:37:22;;;;;;;9.25;2.35;;;;;;;11.34;100.00;101389.75;10587853;28;20059;-68
2022/09/16 21:42:23;;;;;;;14.02;1.60;;;;;;;11.35;100.00;101396.84;10587297;28;20040;-69
2022/09/16 21:47:24;;;;;;;7.90;2.20;;;;;;;11.32;100.00;101387.22;10588190;28;20084;-69
2022/09/16 21:52:24;;;;;;;5.70;2.65;;;;;;;11.36;100.00;101404.81;10569632;28;20063;-68
2022/09/16 21:57:24;;;;;;;20.40;4.93;;;;;;;11.51;100.00;101390.34;10586432;28;20031;-69
2022/09/16 22:02:25;;;;;;;12.68;3.25;;;;;;;11.67;100.00;101428.09;10569235;28;20043;-68
2022/09/16 22:07:25;;;;;;;12.35;2.75;;;;;;;11.42;100.00;101414.03;10586239;28;20024;-69
2022/09/16 22:12:26;;;;;;;11.35;3.33;;;;;;;11.23;100.00;101406.50;10567650;28;20040;-69
2022/09/16 22:17:26;;;;;;;10.45;2.70;;;;;;;11.07;100.00;101415.66;10585305;28;20032;-69
2022/09/16 22:22:27;;;;;;;6.32;3.05;;;;;;;11.09;100.00;101446.16;10586424;28;20042;-71
2022/09/16 22:27:28;;;;;;;7.47;3.53;;;;;;;11.03;100.00;101420.63;10552438;28;20315;-69
2022/09/16 22:32:29;;;;;;;26.48;17.52;;;;;;;11.03;100.00;101408.94;10585319;28;20039;-69
2022/09/16 22:37:29;;;;;;;19.40;5.28;;;;;;;11.15;100.00;101408.28;10567448;28;20048;-69
2022/09/16 22:42:29;;;;;;;6.88;3.15;;;;;;;11.18;100.00;101424.19;10584818;28;20415;-69
2022/09/16 22:47:30;;;;;;;22.20;3.33;;;;;;;11.14;100.00;101411.19;10583732;28;20081;-69
2022/09/16 22:52:30;;;;;;;9.02;2.60;;;;;;;11.15;100.00;101412.88;10584836;28;20035;-69
2022/09/16 22:57:31;;;;;;;7.43;2.55;;;;;;;11.07;100.00;101424.66;10568257;28;20123;-69
2022/09/16 23:02:31;;;;;;;5.03;2.85;;;;;;;11.06;100.00;101420.25;10586385;28;20047;-70
2022/09/16 23:07:32;;;;;;;5.63;2.33;;;;;;;11.15;100.00;101412.88;10583323;28;20027;-69